createdAt,value
2017-08-24T00:00:05.905Z,89.80
2017-08-24T00:02:33.772Z,89.10
2017-08-24T00:05:01.639Z,88.60
2017-08-24T00:07:29.507Z,89.00
2017-08-24T00:09:57.374Z,88.20
2017-08-24T00:12:25.240Z,89.00
2017-08-24T00:14:53.108Z,89.40
2017-08-24T00:17:20.979Z,88.80
2017-08-24T00:19:48.846Z,88.50
2017-08-24T00:22:16.710Z,88.80
2017-08-24T00:24:44.577Z,89.80
2017-08-24T00:27:12.445Z,89.20
2017-08-24T00:29:40.312Z,89.20
2017-08-24T00:32:08.179Z,88.90
2017-08-24T00:34:36.045Z,88.00
2017-08-24T00:37:03.913Z,88.00
2017-08-24T00:39:31.781Z,89.40
2017-08-24T00:41:59.648Z,90.40
2017-08-24T00:44:27.521Z,90.50
2017-08-24T00:46:55.383Z,90.70
2017-08-24T00:49:23.247Z,90.60
2017-08-24T00:51:51.117Z,89.70
2017-08-24T00:54:18.984Z,89.90
2017-08-24T00:56:46.852Z,89.70
2017-08-24T00:59:14.718Z,89.40
2017-08-24T01:01:42.585Z,89.40
2017-08-24T01:04:10.453Z,91.00
2017-08-24T01:06:38.323Z,90.70
2017-08-24T01:09:06.188Z,91.50
2017-08-24T01:11:34.054Z,90.90
2017-08-24T01:14:01.921Z,91.70
2017-08-24T01:16:29.789Z,91.80
2017-08-24T01:18:57.657Z,92.20
2017-08-24T01:21:25.523Z,91.90
2017-08-24T01:23:53.391Z,91.40
2017-08-24T01:26:21.258Z,91.30
2017-08-24T01:28:49.125Z,90.90
2017-08-24T01:31:16.993Z,90.90
2017-08-24T01:33:44.867Z,91.00
2017-08-24T01:36:12.728Z,90.90
2017-08-24T01:38:40.595Z,90.70
2017-08-24T01:41:08.462Z,90.40
2017-08-24T01:43:36.331Z,90.30
2017-08-24T01:46:04.196Z,90.00
2017-08-24T01:48:32.064Z,90.30
2017-08-24T01:50:59.931Z,90.80
2017-08-24T01:53:27.798Z,90.70
2017-08-24T01:55:55.665Z,90.50
2017-08-24T01:58:23.532Z,90.30
2017-08-24T02:00:51.400Z,90.10
2017-08-24T02:03:19.267Z,89.80
2017-08-24T02:05:47.133Z,90.00
2017-08-24T02:08:15.001Z,90.10
2017-08-24T02:10:42.793Z,90.00
2017-08-24T02:13:10.633Z,89.60
2017-08-24T02:15:38.501Z,89.60
2017-08-24T02:18:06.315Z,89.50
2017-08-24T02:20:34.132Z,89.40
2017-08-24T02:23:02.000Z,89.60
2017-08-24T02:25:29.867Z,89.90
2017-08-24T02:27:57.734Z,89.60
2017-08-24T02:30:25.605Z,89.90
2017-08-24T02:32:53.318Z,89.70
2017-08-24T02:35:21.131Z,90.20
2017-08-24T02:37:48.998Z,90.60
2017-08-24T02:40:16.770Z,90.80
2017-08-24T02:42:44.630Z,90.50
2017-08-24T02:45:12.498Z,90.40
2017-08-24T02:47:40.366Z,90.30
2017-08-24T02:50:08.233Z,90.30
2017-08-24T02:52:36.100Z,90.70
2017-08-24T02:55:03.968Z,90.90
2017-08-24T02:57:31.855Z,91.00
2017-08-24T02:59:59.701Z,91.00
2017-08-24T03:02:27.569Z,90.80
2017-08-24T03:04:55.436Z,90.70
2017-08-24T03:07:23.308Z,91.40
2017-08-24T03:09:51.170Z,91.10
2017-08-24T03:12:19.039Z,91.10
2017-08-24T03:14:46.905Z,90.90
2017-08-24T03:17:14.775Z,90.80
2017-08-24T03:19:42.644Z,90.40
2017-08-24T03:22:10.508Z,90.40
2017-08-24T03:24:38.379Z,90.60
2017-08-24T03:27:06.242Z,90.40
2017-08-24T03:29:34.109Z,90.60
2017-08-24T03:32:01.975Z,90.20
2017-08-24T03:34:29.843Z,90.30
2017-08-24T03:36:57.710Z,90.30
2017-08-24T03:39:25.577Z,90.30
2017-08-24T03:41:54.675Z,90.20
2017-08-24T03:44:22.539Z,90.40
2017-08-24T03:46:50.408Z,90.20
2017-08-24T03:49:18.275Z,90.20
2017-08-24T03:51:46.142Z,90.40
2017-08-24T03:54:14.010Z,90.90
2017-08-24T03:56:41.877Z,91.20
2017-08-24T03:59:09.744Z,91.30
2017-08-24T04:01:37.611Z,91.20
2017-08-24T04:04:05.478Z,90.90
2017-08-24T04:06:33.346Z,90.50
2017-08-24T04:09:01.213Z,90.70
2017-08-24T04:11:29.081Z,90.50
2017-08-24T04:13:56.948Z,90.20
2017-08-24T04:16:24.815Z,90.30
2017-08-24T04:18:52.682Z,90.10
2017-08-24T04:21:20.549Z,90.10
2017-08-24T04:23:48.416Z,90.10
2017-08-24T04:26:16.490Z,90.70
2017-08-24T04:28:44.361Z,90.70
2017-08-24T04:31:12.224Z,90.70
2017-08-24T04:33:40.100Z,90.80
2017-08-24T04:36:07.958Z,91.00
2017-08-24T04:38:35.825Z,91.10
2017-08-24T04:41:03.571Z,91.10
2017-08-24T04:43:31.457Z,91.10
2017-08-24T04:45:59.324Z,90.90
2017-08-24T04:48:27.192Z,90.90
2017-08-24T04:50:55.059Z,90.90
2017-08-24T04:53:22.929Z,90.80
2017-08-24T04:55:50.792Z,90.80
2017-08-24T04:58:18.660Z,90.90
2017-08-24T05:00:46.527Z,90.90
2017-08-24T05:03:14.395Z,90.90
2017-08-24T05:05:42.262Z,90.80
2017-08-24T05:08:10.130Z,90.70
2017-08-24T05:10:38.000Z,90.80
2017-08-24T05:13:05.862Z,90.80
2017-08-24T05:15:33.731Z,90.60
2017-08-24T05:18:01.598Z,90.60
2017-08-24T05:20:29.465Z,90.20
2017-08-24T05:22:57.338Z,90.20
2017-08-24T05:25:25.200Z,90.30
2017-08-24T05:27:53.067Z,90.30
2017-08-24T05:30:20.935Z,90.50
2017-08-24T05:32:48.802Z,90.80
2017-08-24T05:35:16.669Z,90.50
2017-08-24T05:37:44.536Z,90.50
2017-08-24T05:40:12.403Z,90.40
2017-08-24T05:42:40.270Z,90.40
2017-08-24T05:45:08.138Z,90.20
2017-08-24T05:47:36.005Z,90.40
2017-08-24T05:50:03.873Z,90.40
2017-08-24T05:52:31.739Z,90.40
2017-08-24T05:54:59.607Z,90.60
2017-08-24T05:57:27.474Z,90.90
2017-08-24T05:59:55.342Z,90.80
2017-08-24T06:02:23.210Z,90.80
2017-08-24T06:04:51.075Z,91.10
2017-08-24T06:07:18.943Z,90.90
2017-08-24T06:09:46.809Z,91.00
2017-08-24T06:12:14.678Z,91.00
2017-08-24T06:14:42.544Z,91.00
2017-08-24T06:17:10.414Z,91.10
2017-08-24T06:19:38.279Z,91.10
2017-08-24T06:22:06.147Z,90.40
2017-08-24T06:24:34.014Z,90.10
2017-08-24T06:27:01.881Z,89.30
2017-08-24T06:29:29.753Z,87.80
2017-08-24T06:31:57.620Z,86.90
2017-08-24T06:34:25.485Z,87.30
2017-08-24T06:36:53.384Z,87.80
2017-08-24T06:39:21.219Z,87.10
2017-08-24T06:41:49.089Z,87.50
2017-08-24T06:44:16.957Z,87.30
2017-08-24T06:46:44.820Z,87.30
2017-08-24T06:49:12.689Z,87.60
2017-08-24T06:51:40.558Z,88.10
2017-08-24T06:54:08.421Z,87.50
2017-08-24T06:56:36.288Z,87.80
2017-08-24T06:59:04.156Z,87.00
2017-08-24T07:01:32.024Z,87.40
2017-08-24T07:03:59.890Z,85.60
2017-08-24T07:06:27.757Z,84.50
2017-08-24T07:08:55.625Z,84.10
2017-08-24T07:11:23.491Z,82.00
2017-08-24T07:13:51.359Z,81.70
2017-08-24T07:16:19.227Z,81.10
2017-08-24T07:18:47.093Z,77.60
2017-08-24T07:21:14.961Z,76.50
2017-08-24T07:23:42.756Z,73.90
2017-08-24T07:26:10.593Z,73.30
2017-08-24T07:28:38.461Z,72.80
2017-08-24T07:31:06.328Z,73.20
2017-08-24T07:33:34.195Z,74.30
2017-08-24T07:36:02.063Z,73.40
2017-08-24T07:38:29.930Z,72.20
2017-08-24T07:40:57.796Z,72.50
2017-08-24T07:43:25.664Z,71.90
2017-08-24T07:45:53.530Z,72.50
2017-08-24T07:48:21.399Z,72.00
2017-08-24T07:50:49.266Z,72.90
2017-08-24T07:53:17.133Z,73.70
2017-08-24T07:55:45.000Z,73.20
2017-08-24T07:58:12.867Z,74.80
2017-08-24T08:00:40.734Z,75.20
2017-08-24T08:03:08.602Z,72.10
2017-08-24T08:05:36.469Z,70.90
2017-08-24T08:08:04.341Z,68.90
2017-08-24T08:10:32.204Z,68.40
2017-08-24T08:13:00.071Z,68.00
2017-08-24T08:15:27.938Z,67.40
2017-08-24T08:17:55.805Z,69.20
2017-08-24T08:20:23.672Z,67.60
2017-08-24T08:22:51.540Z,68.00
2017-08-24T08:25:19.407Z,69.20
2017-08-24T08:27:47.274Z,69.50
2017-08-24T08:30:15.141Z,68.50
2017-08-24T08:32:42.941Z,69.00
2017-08-24T08:35:10.774Z,69.20
2017-08-24T08:37:38.641Z,69.20
2017-08-24T08:40:06.508Z,68.90
2017-08-24T08:42:34.379Z,69.00
2017-08-24T08:45:02.243Z,69.30
2017-08-24T08:47:30.109Z,70.10
2017-08-24T08:49:57.978Z,68.90
2017-08-24T08:52:25.844Z,68.40
2017-08-24T08:54:53.712Z,67.80
2017-08-24T08:57:21.579Z,67.50
2017-08-24T08:59:49.446Z,64.50
2017-08-24T09:02:17.314Z,58.40
2017-08-24T09:04:45.185Z,57.40
2017-08-24T09:07:13.048Z,54.00
2017-08-24T09:09:40.915Z,51.40
2017-08-24T09:12:08.782Z,50.50
2017-08-24T09:14:36.649Z,49.00
2017-08-24T09:17:04.517Z,47.50
2017-08-24T09:19:32.389Z,48.70
2017-08-24T09:22:00.251Z,48.40
2017-08-24T09:24:28.118Z,49.70
2017-08-24T09:26:55.986Z,49.70
2017-08-24T09:29:23.853Z,47.70
2017-08-24T09:31:51.721Z,47.30
2017-08-24T09:34:19.588Z,48.70
2017-08-24T09:36:47.381Z,47.20
2017-08-24T09:39:15.221Z,48.50
2017-08-24T09:41:43.087Z,47.60
2017-08-24T09:44:10.955Z,47.30
2017-08-24T09:46:38.822Z,48.10
2017-08-24T09:49:06.688Z,48.40
2017-08-24T09:51:34.556Z,45.90
2017-08-24T09:54:02.423Z,45.10
2017-08-24T09:56:30.295Z,44.80
2017-08-24T09:58:58.164Z,44.90
2017-08-24T10:01:26.026Z,42.50
2017-08-24T10:03:53.897Z,42.80
2017-08-24T10:06:21.763Z,45.00
2017-08-24T10:08:49.633Z,43.00
2017-08-24T10:11:17.496Z,40.50
2017-08-24T10:13:45.364Z,38.80
2017-08-24T10:16:13.230Z,40.70
2017-08-24T10:18:41.096Z,41.60
2017-08-24T10:21:08.963Z,42.50
2017-08-24T10:23:36.830Z,39.30
2017-08-24T10:26:04.698Z,39.80
2017-08-24T10:28:32.587Z,40.60
2017-08-24T10:31:01.279Z,42.80
2017-08-24T10:33:29.118Z,42.80
2017-08-24T10:35:56.990Z,40.80
2017-08-24T10:38:24.853Z,39.80
2017-08-24T10:40:52.721Z,38.80
2017-08-24T10:43:20.588Z,40.40
2017-08-24T10:45:48.454Z,39.20
2017-08-24T10:48:16.322Z,41.30
2017-08-24T10:50:44.188Z,40.90
2017-08-24T10:53:12.057Z,39.50
2017-08-24T10:55:39.928Z,38.50
2017-08-24T10:58:07.791Z,38.60
2017-08-24T11:00:35.658Z,40.10
2017-08-24T11:03:03.525Z,38.70
2017-08-24T11:05:31.393Z,40.10
2017-08-24T11:07:59.262Z,38.50
2017-08-24T11:10:27.127Z,38.90
2017-08-24T11:12:54.993Z,39.00
2017-08-24T11:15:22.861Z,37.90
2017-08-24T11:17:50.740Z,39.80
2017-08-24T11:20:18.597Z,40.20
2017-08-24T11:22:46.469Z,38.80
2017-08-24T11:25:14.331Z,40.60
2017-08-24T11:27:42.197Z,41.00
2017-08-24T11:30:10.065Z,39.90
2017-08-24T11:32:37.932Z,39.30
2017-08-24T11:35:05.798Z,39.60
2017-08-24T11:37:33.510Z,38.70
2017-08-24T11:40:01.329Z,36.80
2017-08-24T11:42:29.195Z,38.40
2017-08-24T11:44:57.087Z,39.40
2017-08-24T11:47:25.750Z,38.20
2017-08-24T11:49:53.617Z,38.20
2017-08-24T11:52:21.484Z,37.30
2017-08-24T11:54:49.353Z,39.30
2017-08-24T11:57:17.219Z,40.80
2017-08-24T11:59:45.086Z,39.40
2017-08-24T12:02:12.953Z,39.80
2017-08-24T12:04:40.820Z,40.80
2017-08-24T12:07:08.689Z,39.90
2017-08-24T12:09:36.555Z,41.20
2017-08-24T12:12:04.422Z,41.20
2017-08-24T12:14:32.290Z,40.70
2017-08-24T12:17:00.159Z,40.50
2017-08-24T12:19:28.023Z,41.30
2017-08-24T12:21:55.891Z,40.00
2017-08-24T12:24:23.757Z,40.60
2017-08-24T12:26:51.625Z,41.10
2017-08-24T12:29:19.496Z,39.90
2017-08-24T12:31:47.360Z,39.60
2017-08-24T12:34:15.226Z,41.00
2017-08-24T12:36:43.094Z,40.10
2017-08-24T12:39:10.961Z,39.50
2017-08-24T12:41:38.830Z,39.90
2017-08-24T12:44:06.696Z,36.50
2017-08-24T12:46:34.563Z,39.30
2017-08-24T12:49:02.431Z,35.70
2017-08-24T12:51:30.299Z,35.90
2017-08-24T12:53:58.166Z,33.70
2017-08-24T12:56:26.033Z,36.20
2017-08-24T12:58:53.899Z,36.50
2017-08-24T13:01:21.767Z,40.40
2017-08-24T13:03:49.634Z,37.70
2017-08-24T13:06:17.500Z,40.20
2017-08-24T13:08:45.369Z,38.80
2017-08-24T13:11:13.236Z,39.30
2017-08-24T13:13:41.108Z,38.00
2017-08-24T13:16:08.969Z,38.70
2017-08-24T13:18:36.837Z,39.00
2017-08-24T13:21:04.705Z,38.50
2017-08-24T13:23:32.572Z,38.10
2017-08-24T13:26:00.440Z,40.30
2017-08-24T13:28:28.312Z,41.40
2017-08-24T13:30:56.176Z,40.10
2017-08-24T13:33:24.040Z,38.90
2017-08-24T13:35:51.915Z,37.40
2017-08-24T13:38:19.780Z,37.30
2017-08-24T13:40:47.644Z,38.50
2017-08-24T13:43:15.514Z,37.70
2017-08-24T13:45:43.379Z,38.90
2017-08-24T13:48:11.264Z,37.60
2017-08-24T13:50:39.112Z,38.40
2017-08-24T13:53:06.978Z,37.20
2017-08-24T13:55:34.846Z,36.00
2017-08-24T13:58:02.713Z,36.70
2017-08-24T14:00:30.581Z,35.10
2017-08-24T14:02:58.449Z,36.40
2017-08-24T14:05:26.314Z,37.20
2017-08-24T14:07:54.181Z,35.90
2017-08-24T14:10:22.050Z,36.00
2017-08-24T14:12:49.916Z,37.70
2017-08-24T14:15:17.784Z,36.60
2017-08-24T14:17:45.650Z,38.10
2017-08-24T14:20:13.518Z,37.40
2017-08-24T14:22:41.386Z,39.30
2017-08-24T14:25:09.252Z,40.60
2017-08-24T14:27:37.119Z,39.80
2017-08-24T14:30:04.987Z,36.90
2017-08-24T14:32:32.853Z,36.70
2017-08-24T14:35:00.721Z,37.80
2017-08-24T14:37:28.588Z,38.90
2017-08-24T14:39:56.456Z,37.90
2017-08-24T14:42:24.322Z,37.10
2017-08-24T14:44:52.190Z,35.40
2017-08-24T14:47:20.057Z,35.60
2017-08-24T14:49:47.924Z,35.30
2017-08-24T14:52:15.791Z,36.10
2017-08-24T14:54:43.660Z,37.70
2017-08-24T14:57:11.526Z,39.30
2017-08-24T14:59:39.393Z,37.60
2017-08-24T15:02:07.260Z,39.80
2017-08-24T15:04:35.127Z,40.50
2017-08-24T15:07:02.995Z,39.80
2017-08-24T15:09:30.863Z,38.90
2017-08-24T15:11:58.730Z,37.60
2017-08-24T15:14:26.599Z,36.90
2017-08-24T15:16:54.463Z,38.20
2017-08-24T15:19:22.332Z,37.70
2017-08-24T15:21:50.198Z,40.10
2017-08-24T15:24:18.066Z,36.30
2017-08-24T15:26:45.933Z,36.80
2017-08-24T15:29:13.805Z,39.10
2017-08-24T15:31:41.667Z,40.00
2017-08-24T15:34:09.535Z,37.60
2017-08-24T15:36:37.402Z,37.60
2017-08-24T15:39:05.218Z,38.30
2017-08-24T15:41:33.037Z,38.90
2017-08-24T15:44:00.900Z,39.10
2017-08-24T15:46:28.769Z,40.20
2017-08-24T15:48:56.635Z,40.20
2017-08-24T15:51:24.502Z,40.30
2017-08-24T15:53:53.293Z,41.70
2017-08-24T15:56:21.159Z,41.50
2017-08-24T15:58:49.026Z,41.50
2017-08-24T16:01:16.893Z,42.20
2017-08-24T16:03:44.760Z,43.70
2017-08-24T16:06:12.628Z,42.90
2017-08-24T16:08:40.495Z,43.70
2017-08-24T16:11:08.362Z,44.60
2017-08-24T16:13:36.229Z,43.60
2017-08-24T16:16:04.097Z,44.40
2017-08-24T16:18:31.964Z,43.10
2017-08-24T16:20:59.831Z,43.60
2017-08-24T16:23:27.699Z,44.00
2017-08-24T16:25:55.568Z,44.30
2017-08-24T16:28:23.432Z,44.20
2017-08-24T16:30:51.299Z,43.50
2017-08-24T16:33:19.167Z,45.20
2017-08-24T16:35:47.034Z,46.60
2017-08-24T16:38:14.901Z,47.00
2017-08-24T16:40:42.696Z,44.70
2017-08-24T16:43:10.533Z,45.60
2017-08-24T16:45:38.402Z,46.20
2017-08-24T16:48:06.268Z,45.00
2017-08-24T16:50:34.135Z,44.30
2017-08-24T16:53:02.002Z,44.20
2017-08-24T16:55:29.869Z,44.50
2017-08-24T16:57:57.737Z,43.80
2017-08-24T17:00:25.605Z,43.70
2017-08-24T17:02:53.471Z,44.90
2017-08-24T17:05:21.354Z,44.60
2017-08-24T17:07:49.220Z,44.80
2017-08-24T17:10:17.074Z,45.30
2017-08-24T17:12:44.941Z,43.60
2017-08-24T17:15:12.811Z,43.40
2017-08-24T17:17:40.678Z,44.70
2017-08-24T17:20:08.550Z,44.10
2017-08-24T17:22:36.411Z,44.60
2017-08-24T17:25:04.277Z,47.00
2017-08-24T17:27:32.145Z,47.00
2017-08-24T17:30:00.011Z,47.70
2017-08-24T17:32:27.878Z,46.90
2017-08-24T17:34:55.746Z,46.60
2017-08-24T17:37:23.613Z,48.60
2017-08-24T17:39:51.479Z,49.10
2017-08-24T17:42:19.348Z,49.40
2017-08-24T17:44:47.214Z,50.40
2017-08-24T17:47:15.080Z,51.90
2017-08-24T17:49:42.949Z,55.60
2017-08-24T17:52:10.816Z,58.60
2017-08-24T17:54:38.682Z,53.20
2017-08-24T17:57:06.550Z,58.10
2017-08-24T17:59:34.420Z,58.20
2017-08-24T18:02:02.286Z,58.20
2017-08-24T18:04:30.151Z,57.30
2017-08-24T18:06:58.019Z,59.10
2017-08-24T18:09:25.886Z,58.80
2017-08-24T18:11:53.755Z,59.90
2017-08-24T18:14:21.621Z,59.90
2017-08-24T18:16:49.489Z,61.40
2017-08-24T18:19:17.356Z,62.40
2017-08-24T18:21:45.222Z,64.10
2017-08-24T18:24:13.090Z,64.40
2017-08-24T18:26:40.957Z,65.90
2017-08-24T18:29:08.824Z,65.70
2017-08-24T18:31:36.691Z,65.90
2017-08-24T18:34:04.574Z,67.50
2017-08-24T18:36:32.426Z,67.10
2017-08-24T18:39:00.294Z,68.90
2017-08-24T18:41:28.161Z,69.00
2017-08-24T18:43:56.028Z,69.70
2017-08-24T18:46:23.894Z,71.20
2017-08-24T18:48:51.761Z,70.90
2017-08-24T18:51:19.630Z,70.70
2017-08-24T18:53:47.496Z,70.20
2017-08-24T18:56:15.298Z,70.60
2017-08-24T18:58:43.128Z,71.40
2017-08-24T19:01:10.996Z,72.70
2017-08-24T19:03:38.863Z,73.50
2017-08-24T19:06:06.731Z,73.90
2017-08-24T19:08:34.597Z,74.00
2017-08-24T19:11:02.465Z,74.00
2017-08-24T19:13:30.331Z,74.40
2017-08-24T19:15:58.200Z,74.70
2017-08-24T19:18:26.070Z,75.20
2017-08-24T19:20:53.937Z,74.90
2017-08-24T19:23:21.802Z,75.70
2017-08-24T19:25:49.667Z,77.10
2017-08-24T19:28:17.535Z,76.30
2017-08-24T19:30:45.402Z,76.20
2017-08-24T19:33:13.270Z,76.40
2017-08-24T19:35:41.137Z,77.90
2017-08-24T19:38:09.824Z,79.20
2017-08-24T19:40:37.795Z,79.80
2017-08-24T19:43:05.762Z,80.10
2017-08-24T19:45:33.834Z,79.40
2017-08-24T19:48:05.667Z,79.00
2017-08-24T19:50:36.001Z,79.00
2017-08-24T19:53:06.301Z,78.80
2017-08-24T19:55:34.319Z,79.10
2017-08-24T19:58:02.182Z,81.10
2017-08-24T20:00:30.049Z,82.30
2017-08-24T20:02:57.917Z,81.90
2017-08-24T20:05:25.786Z,81.80
2017-08-24T20:07:53.577Z,82.40
2017-08-24T20:10:21.416Z,82.60
2017-08-24T20:12:49.386Z,82.80
2017-08-24T20:15:17.259Z,82.90
2017-08-24T20:17:45.120Z,81.40
2017-08-24T20:20:12.987Z,81.60
2017-08-24T20:22:40.856Z,83.20
2017-08-24T20:25:08.645Z,83.10
2017-08-24T20:27:36.486Z,83.80
2017-08-24T20:30:06.047Z,82.50
2017-08-24T20:32:33.970Z,82.60
2017-08-24T20:35:01.828Z,81.80
2017-08-24T20:37:29.696Z,82.20
2017-08-24T20:39:57.568Z,81.90
2017-08-24T20:42:25.435Z,81.70
2017-08-24T20:44:53.310Z,81.80
2017-08-24T20:47:21.165Z,82.10
2017-08-24T20:49:49.036Z,82.20
2017-08-24T20:52:16.903Z,82.10
2017-08-24T20:54:44.773Z,82.00
2017-08-24T20:57:12.738Z,83.20
2017-08-24T20:59:40.604Z,82.40
2017-08-24T21:02:08.472Z,82.80
2017-08-24T21:04:36.339Z,82.90
2017-08-24T21:07:04.205Z,82.70
2017-08-24T21:09:32.074Z,82.60
2017-08-24T21:11:59.940Z,82.60
2017-08-24T21:14:27.807Z,82.40
2017-08-24T21:16:55.674Z,82.20
2017-08-24T21:19:23.541Z,82.30
2017-08-24T21:21:51.408Z,82.70
2017-08-24T21:24:19.276Z,82.40
2017-08-24T21:26:47.143Z,81.50
2017-08-24T21:29:15.011Z,81.10
2017-08-24T21:31:42.877Z,82.60
2017-08-24T21:34:10.744Z,82.00
2017-08-24T21:36:38.632Z,82.20
2017-08-24T21:39:06.478Z,83.50
2017-08-24T21:41:34.346Z,82.30
2017-08-24T21:44:02.216Z,85.80
2017-08-24T21:46:30.013Z,87.00
2017-08-24T21:48:57.846Z,87.70
2017-08-24T21:51:25.713Z,86.20
2017-08-24T21:53:53.581Z,85.20
2017-08-24T21:56:21.447Z,87.90
2017-08-24T21:58:49.315Z,87.70
2017-08-24T22:01:17.181Z,88.10
2017-08-24T22:03:45.049Z,87.30
2017-08-24T22:06:12.916Z,87.90
2017-08-24T22:08:40.783Z,87.20
2017-08-24T22:11:08.651Z,88.50
2017-08-24T22:13:36.518Z,87.30
2017-08-24T22:16:04.385Z,86.40
2017-08-24T22:18:32.152Z,86.10
2017-08-24T22:21:00.018Z,86.00
2017-08-24T22:23:27.885Z,85.40
2017-08-24T22:25:55.751Z,84.60
2017-08-24T22:28:23.619Z,85.10
2017-08-24T22:30:51.489Z,85.30
2017-08-24T22:33:19.364Z,85.10
2017-08-24T22:35:47.220Z,84.90
2017-08-24T22:38:15.088Z,85.00
2017-08-24T22:40:42.955Z,85.10
2017-08-24T22:43:10.822Z,85.10
2017-08-24T22:45:38.690Z,85.10
2017-08-24T22:48:06.557Z,85.20
2017-08-24T22:50:34.429Z,85.20
2017-08-24T22:53:07.755Z,84.80
2017-08-24T22:55:41.254Z,85.30
2017-08-24T22:58:14.717Z,85.30
2017-08-24T23:00:48.328Z,84.70
2017-08-24T23:03:21.716Z,85.20
2017-08-24T23:05:49.583Z,85.80
2017-08-24T23:08:17.450Z,86.10
2017-08-24T23:10:45.317Z,85.20
2017-08-24T23:13:13.495Z,85.10
2017-08-24T23:15:41.360Z,85.60
2017-08-24T23:18:09.226Z,85.50
2017-08-24T23:20:37.094Z,85.80
2017-08-24T23:23:04.961Z,86.80
2017-08-24T23:25:32.827Z,86.40
2017-08-24T23:28:00.696Z,86.60
2017-08-24T23:30:28.563Z,86.30
2017-08-24T23:32:56.354Z,86.20
2017-08-24T23:35:24.194Z,85.90
2017-08-24T23:37:52.062Z,85.90
2017-08-24T23:40:19.929Z,85.40
2017-08-24T23:42:47.797Z,85.50
2017-08-24T23:45:15.664Z,86.40
2017-08-24T23:47:43.530Z,87.80
2017-08-24T23:50:11.399Z,86.40
2017-08-24T23:52:39.265Z,86.80
2017-08-24T23:55:07.133Z,87.80
2017-08-24T23:57:35.000Z,88.40
